Time;durP1;ratioP1;P1;durP2;ratioP2;P2;SDS_P1;SDS_P2;PMS_P1;PMS_P2;Temp;Humidity;BMP_temperature;BMP_pressure;BME280_temperature;BME280_humidity;BME280_pressure;Samples;Min_cycle;Max_cycle;Signal;HPM_P1;HPM_P2
2022/04/03 00:02:07;;;;;;;11.52;5.32;;;;;;;1.72;52.53;99474.00;5081032;28;20063;-77
2022/04/03 00:04:34;;;;;;;10.23;5.78;;;;;;;1.67;52.53;99475.97;5024113;28;20125;-79
2022/04/03 00:07:02;;;;;;;9.85;5.53;;;;;;;1.66;52.73;99475.16;5073276;28;20636;-79
2022/04/03 00:09:38;;;;;;;13.48;6.25;;;;;;;1.64;52.32;99482.19;5061635;28;20048;-80
2022/04/03 00:12:06;;;;;;;11.77;5.40;;;;;;;1.63;52.70;99470.06;5082181;28;20065;-84
2022/04/03 00:14:34;;;;;;;10.80;5.95;;;;;;;1.59;52.52;99478.97;5088321;28;20060;-80
2022/04/03 00:17:02;;;;;;;8.68;5.70;;;;;;;1.60;52.71;99474.59;5057215;28;20048;-83
2022/04/03 00:19:30;;;;;;;9.38;5.40;;;;;;;1.57;52.52;99470.38;5080409;28;20345;-76
2022/04/03 00:21:57;;;;;;;10.23;5.05;;;;;;;1.52;52.75;99472.34;5068310;28;20072;-80
2022/04/03 00:24:24;;;;;;;8.15;5.43;;;;;;;1.46;53.07;99473.50;5077102;28;20400;-78
2022/04/03 00:26:53;;;;;;;13.25;5.90;;;;;;;1.42;53.35;99482.34;5074117;28;20101;-78
2022/04/03 00:29:20;;;;;;;13.73;5.97;;;;;;;1.43;53.38;99478.00;5068225;28;20143;-79
2022/04/03 00:31:47;;;;;;;15.05;7.40;;;;;;;1.43;53.54;99472.81;5067947;28;20060;-77
2022/04/03 00:34:14;;;;;;;15.30;6.88;;;;;;;1.39;53.28;99476.44;5063919;28;20109;-80
2022/04/03 00:36:41;;;;;;;12.70;5.88;;;;;;;1.41;53.18;99475.47;5063805;28;20442;-74
2022/04/03 00:39:09;;;;;;;9.18;5.57;;;;;;;1.46;53.44;99488.25;5063553;28;20049;-78
2022/04/03 00:41:37;;;;;;;10.48;5.50;;;;;;;1.36;53.69;99480.03;5073581;28;20049;-78
2022/04/03 00:44:11;;;;;;;11.90;5.82;;;;;;;1.36;54.17;99484.41;5072372;28;20072;-78
2022/04/03 00:46:40;;;;;;;12.88;6.30;;;;;;;1.31;53.71;99482.88;5088035;28;20105;-77
2022/04/03 00:49:07;;;;;;;13.02;6.47;;;;;;;1.29;53.70;99487.28;5090704;28;20044;-80
2022/04/03 00:51:38;;;;;;;11.23;6.20;;;;;;;1.30;53.53;99478.56;5078243;28;20046;-80
2022/04/03 00:54:06;;;;;;;10.55;5.28;;;;;;;1.27;53.97;99489.13;5083931;28;20032;-79
2022/04/03 00:56:33;;;;;;;10.38;5.32;;;;;;;1.27;53.85;99489.13;5084838;28;20073;-77
2022/04/03 00:59:01;;;;;;;7.30;5.20;;;;;;;1.22;53.93;99483.28;5088738;28;20048;-77
2022/04/03 01:01:30;;;;;;;7.85;5.07;;;;;;;1.22;54.18;99480.69;5081163;28;20253;-78
2022/04/03 01:03:57;;;;;;;9.93;5.90;;;;;;;1.24;54.19;99484.06;5082559;28;20049;-82
2022/04/03 01:06:24;;;;;;;9.80;5.50;;;;;;;1.17;54.29;99487.00;5083798;28;20052;-79
2022/04/03 01:08:55;;;;;;;9.80;5.75;;;;;;;1.17;54.26;99479.22;5076017;28;20044;-77
2022/04/03 01:11:22;;;;;;;9.57;5.07;;;;;;;1.19;54.28;99478.25;5069179;28;20048;-80
2022/04/03 01:13:51;;;;;;;9.43;5.88;;;;;;;1.13;54.39;99481.09;5073036;28;20040;-81
2022/04/03 01:16:18;;;;;;;14.35;5.05;;;;;;;1.24;54.03;99484.06;5080309;28;20032;-80
2022/04/03 01:18:49;;;;;;;12.82;5.57;;;;;;;1.19;54.25;99477.38;5074673;28;20028;-79
2022/04/03 01:21:18;;;;;;;13.18;6.25;;;;;;;1.20;54.52;99476.47;5079974;28;20036;-78
2022/04/03 01:23:46;;;;;;;10.13;5.72;;;;;;;1.18;54.44;99479.13;5080482;28;20029;-80
2022/04/03 01:26:16;;;;;;;11.55;5.78;;;;;;;1.10;54.80;99481.28;5079722;28;20140;-80
2022/04/03 01:28:44;;;;;;;9.50;5.35;;;;;;;1.11;54.53;99482.94;5012024;28;20048;-77
2022/04/03 01:31:12;;;;;;;10.43;5.88;;;;;;;1.05;54.51;99480.63;5036465;28;20112;-80
2022/04/03 01:33:39;;;;;;;9.80;5.65;;;;;;;1.01;54.50;99479.94;5076244;28;20106;-79
2022/04/03 01:36:07;;;;;;;11.23;5.50;;;;;;;1.06;54.48;99472.75;5073891;28;20075;-81
2022/04/03 01:38:37;;;;;;;12.80;4.85;;;;;;;1.05;54.86;99478.88;5029701;28;20102;-78
2022/04/03 01:41:07;;;;;;;6.65;4.15;;;;;;;1.05;54.84;99484.06;5064322;28;20059;-78
2022/04/03 01:43:40;;;;;;;9.57;4.95;;;;;;;1.00;54.91;99490.41;5081380;28;20255;-77
2022/04/03 01:46:07;;;;;;;15.95;5.18;;;;;;;0.97;54.71;99496.56;5083196;28;20036;-75
2022/04/03 01:48:34;;;;;;;10.13;3.90;;;;;;;1.01;54.81;99494.66;5080967;28;20076;-78
2022/04/03 01:51:01;;;;;;;9.55;4.13;;;;;;;0.93;55.11;99506.25;5022715;28;20041;-80
2022/04/03 01:53:28;;;;;;;8.80;3.83;;;;;;;0.93;55.12;99495.03;5066082;28;20025;-79
2022/04/03 01:56:00;;;;;;;11.95;5.07;;;;;;;0.89;55.30;99496.91;5072054;28;20090;-78
2022/04/03 01:58:27;;;;;;;9.65;5.18;;;;;;;0.87;55.40;99500.50;5068228;28;20131;-81
2022/04/03 02:00:56;;;;;;;10.32;4.97;;;;;;;0.87;54.96;99501.34;5064127;28;20041;-81
2022/04/03 02:03:24;;;;;;;13.40;6.00;;;;;;;0.81;55.17;99509.44;5049086;28;20139;-80
2022/04/03 02:05:51;;;;;;;14.55;5.78;;;;;;;0.77;55.32;99505.25;5035243;28;20055;-80
2022/04/03 02:08:19;;;;;;;8.80;4.82;;;;;;;0.81;55.49;99509.44;5041369;28;20049;-81
2022/04/03 02:10:46;;;;;;;11.65;6.15;;;;;;;0.74;55.34;99511.44;5040872;28;20132;-80
2022/04/03 02:13:13;;;;;;;11.13;5.85;;;;;;;0.76;55.41;99514.81;5034798;28;20072;-79
2022/04/03 02:15:40;;;;;;;14.48;5.75;;;;;;;0.75;55.37;99512.28;5048074;28;20097;-81
2022/04/03 02:18:09;;;;;;;9.23;5.90;;;;;;;0.71;55.58;99518.53;5052590;28;20255;-77
2022/04/03 02:20:37;;;;;;;8.15;4.85;;;;;;;0.71;55.57;99515.94;5040390;28;20045;-78
2022/04/03 02:23:05;;;;;;;14.98;6.32;;;;;;;0.65;55.39;99522.25;5038391;28;20128;-77
2022/04/03 02:25:33;;;;;;;10.88;5.20;;;;;;;0.72;55.37;99520.19;5031857;28;20091;-80
2022/04/03 02:28:01;;;;;;;9.43;5.13;;;;;;;0.67;55.38;99522.19;5050135;28;20131;-76
2022/04/03 02:30:31;;;;;;;9.75;5.90;;;;;;;0.62;55.31;99529.34;5055991;28;20049;-81
2022/04/03 02:32:58;;;;;;;10.80;5.13;;;;;;;0.65;55.15;99517.03;5057249;28;20044;-78
2022/04/03 02:35:28;;;;;;;8.10;5.38;;;;;;;0.61;55.50;99525.03;5058344;28;20047;-79
2022/04/03 02:37:58;;;;;;;7.50;5.07;;;;;;;0.62;55.43;99519.78;5049406;28;20080;-77
2022/04/03 02:40:26;;;;;;;13.27;5.90;;;;;;;0.54;55.35;99525.31;5055280;28;20037;-76
2022/04/03 02:42:54;;;;;;;8.88;5.53;;;;;;;0.59;55.23;99526.84;5058295;28;20059;-75
2022/04/03 02:45:21;;;;;;;10.00;5.63;;;;;;;0.53;55.33;99523.59;5054818;28;20072;-79
2022/04/03 02:47:51;;;;;;;10.27;5.68;;;;;;;0.53;55.32;99526.19;5038323;28;20054;-78
2022/04/03 02:50:19;;;;;;;12.27;5.25;;;;;;;0.47;55.13;99523.88;5034230;28;20049;-78
2022/04/03 02:52:49;;;;;;;12.60;6.47;;;;;;;0.47;55.30;99525.59;5055239;28;20117;-77
2022/04/03 02:55:16;;;;;;;12.88;5.70;;;;;;;0.45;55.07;99530.91;5050837;28;20065;-76
2022/04/03 02:57:45;;;;;;;10.88;4.53;;;;;;;0.44;55.08;99525.75;5056021;28;20051;-77
2022/04/03 03:00:15;;;;;;;10.38;6.60;;;;;;;0.44;55.21;99524.00;5039371;28;20113;-80
2022/04/03 03:02:44;;;;;;;9.68;5.68;;;;;;;0.43;55.09;99532.69;5033756;28;20401;-78
2022/04/03 03:05:14;;;;;;;10.38;5.35;;;;;;;0.43;55.25;99530.09;5060828;28;20082;-77
2022/04/03 03:07:42;;;;;;;11.55;5.93;;;;;;;0.40;55.12;99532.84;5044796;28;20048;-77
2022/04/03 03:10:16;;;;;;;14.50;6.35;;;;;;;0.37;55.31;99538.16;5055951;28;20052;-78
2022/04/03 03:12:43;;;;;;;13.90;6.15;;;;;;;0.34;55.01;99543.47;5049471;28;20048;-77
2022/04/03 03:15:11;;;;;;;12.65;6.38;;;;;;;0.35;55.40;99538.22;5051728;28;20048;-75
2022/04/03 03:17:39;;;;;;;11.10;6.70;;;;;;;0.30;55.18;99541.91;5056742;28;20036;-76
2022/04/03 03:20:09;;;;;;;15.77;5.57;;;;;;;0.29;55.49;99541.09;5057467;28;20063;-78
2022/04/03 03:22:36;;;;;;;7.28;5.63;;;;;;;0.30;55.43;99541.91;5021537;28;20049;-78
2022/04/03 03:25:06;;;;;;;12.07;5.70;;;;;;;0.28;55.53;99541.97;5052981;28;20040;-76
2022/04/03 03:27:36;;;;;;;10.95;5.57;;;;;;;0.27;55.71;99552.44;5040185;28;20072;-77
2022/04/03 03:30:06;;;;;;;14.68;7.13;;;;;;;0.25;55.54;99549.88;5051283;28;20169;-79
2022/04/03 03:32:34;;;;;;;12.75;5.68;;;;;;;0.25;55.23;99541.25;5055065;28;20060;-77
2022/04/03 03:35:01;;;;;;;12.02;6.55;;;;;;;0.22;55.69;99546.56;5053752;28;20044;-78
2022/04/03 03:37:29;;;;;;;15.13;7.63;;;;;;;0.17;55.64;99547.63;5034040;28;20036;-75
2022/04/03 03:39:57;;;;;;;9.40;5.90;;;;;;;0.17;55.50;99552.81;5044679;28;20544;-78
2022/04/03 03:42:24;;;;;;;14.48;7.15;;;;;;;0.20;55.55;99551.84;5034585;28;20048;-75
2022/04/03 03:44:54;;;;;;;9.07;5.25;;;;;;;0.18;55.87;99557.13;5056684;28;20543;-74
2022/04/03 03:47:21;;;;;;;9.23;5.53;;;;;;;0.14;55.69;99567.66;5046499;28;20630;-76
2022/04/03 03:49:50;;;;;;;15.50;6.75;;;;;;;0.11;55.85;99579.03;5052016;28;20706;-75
2022/04/03 03:52:17;;;;;;;15.52;7.10;;;;;;;0.11;55.93;99571.25;5055380;28;20071;-75
2022/04/03 03:54:46;;;;;;;17.45;7.55;;;;;;;0.10;56.05;99581.69;5054912;28;20040;-76
2022/04/03 03:57:14;;;;;;;13.45;7.32;;;;;;;0.10;56.11;99585.13;5043440;28;20049;-78
2022/04/03 03:59:41;;;;;;;12.57;7.13;;;;;;;0.11;56.09;99584.22;5065473;28;20056;-76
2022/04/03 04:02:10;;;;;;;13.13;6.03;;;;;;;0.09;56.14;99580.00;5058541;28;20133;-76
2022/04/03 04:04:38;;;;;;;10.55;6.40;;;;;;;0.08;55.97;99584.34;5058312;28;20044;-76
2022/04/03 04:07:05;;;;;;;12.85;7.55;;;;;;;0.01;56.59;99588.09;5058250;28;20124;-77
2022/04/03 04:09:33;;;;;;;9.85;5.88;;;;;;;0.04;56.49;99587.97;5057552;28;20682;-73
2022/04/03 04:12:00;;;;;;;10.38;5.15;;;;;;;0.04;56.26;99592.31;5059441;28;20782;-75
2022/04/03 04:14:27;;;;;;;12.00;6.88;;;;;;;-0.01;56.44;99595.09;5056696;28;20477;-75
2022/04/03 04:16:54;;;;;;;12.30;7.80;;;;;;;0.00;56.80;99594.22;5061153;28;20047;-75
2022/04/03 04:19:24;;;;;;;10.18;5.90;;;;;;;0.05;56.39;99605.22;5055495;28;20040;-75
2022/04/03 04:21:51;;;;;;;11.95;5.43;;;;;;;0.03;56.49;99599.25;5057484;28;20396;-76
2022/04/03 04:24:19;;;;;;;11.93;6.00;;;;;;;0.09;56.26;99605.97;5058956;28;20048;-73
2022/04/03 04:26:46;;;;;;;10.85;5.93;;;;;;;0.04;56.57;99597.50;5054391;28;20057;-76
2022/04/03 04:29:14;;;;;;;10.57;5.75;;;;;;;0.07;56.31;99602.59;5056084;28;20055;-74
2022/04/03 04:31:41;;;;;;;9.60;6.88;;;;;;;0.09;56.46;99608.56;5063020;28;20049;-75
2022/04/03 04:34:09;;;;;;;10.18;6.60;;;;;;;0.11;56.49;99614.53;5068424;28;20044;-75
2022/04/03 04:36:38;;;;;;;13.40;7.15;;;;;;;0.12;56.56;99618.81;5051168;28;20041;-74
2022/04/03 04:39:06;;;;;;;10.80;6.95;;;;;;;0.09;56.35;99618.94;5051918;28;20063;-75
2022/04/03 04:41:33;;;;;;;10.75;6.30;;;;;;;0.14;56.15;99625.63;5053032;28;20442;-76
2022/04/03 04:44:01;;;;;;;8.82;6.45;;;;;;;0.17;56.29;99622.94;5053095;28;20624;-77
2022/04/03 04:46:28;;;;;;;13.50;6.55;;;;;;;0.22;56.25;99624.50;5049565;28;20124;-77
2022/04/03 04:48:55;;;;;;;13.75;7.85;;;;;;;0.27;55.99;99627.75;5046918;28;20053;-77
2022/04/03 04:51:22;;;;;;;12.82;5.30;;;;;;;0.37;55.89;99629.06;5031407;28;20080;-77
2022/04/03 04:53:51;;;;;;;10.32;5.80;;;;;;;0.42;55.40;99629.75;5031009;28;20412;-77
2022/04/03 04:56:18;;;;;;;12.32;7.13;;;;;;;0.50;55.58;99643.25;5048116;28;20045;-77
2022/04/03 04:58:46;;;;;;;12.05;5.65;;;;;;;0.55;55.20;99632.69;5058420;28;20120;-76
2022/04/03 05:01:13;;;;;;;14.02;6.93;;;;;;;0.64;55.25;99639.25;5067863;28;20052;-77
2022/04/03 05:03:40;;;;;;;12.63;7.10;;;;;;;0.71;54.74;99641.53;5067665;28;20492;-77
2022/04/03 05:06:09;;;;;;;11.35;6.72;;;;;;;0.73;54.48;99649.25;5066225;28;20680;-75
2022/04/03 05:08:36;;;;;;;8.00;6.53;;;;;;;0.76;54.38;99649.97;5067732;28;20055;-77
2022/04/03 05:11:29;;;;;;;16.88;10.15;;;;;;;0.78;54.04;99652.53;5067996;28;20460;-77
2022/04/03 05:13:56;;;;;;;11.63;7.00;;;;;;;0.86;53.96;99658.22;5067657;28;20087;-79
2022/04/03 05:16:23;;;;;;;10.05;6.65;;;;;;;0.90;53.97;99666.75;5067847;28;20513;-78
2022/04/03 05:18:50;;;;;;;9.93;7.00;;;;;;;0.88;53.52;99660.78;5067106;28;20048;-75
2022/04/03 05:21:18;;;;;;;11.82;7.22;;;;;;;0.84;53.45;99661.81;5043409;28;20128;-76
2022/04/03 05:23:45;;;;;;;9.88;7.43;;;;;;;0.87;53.06;99666.91;5046027;28;20103;-77
2022/04/03 05:26:12;;;;;;;10.75;7.82;;;;;;;0.84;53.14;99669.63;5044778;28;20045;-78
2022/04/03 05:28:41;;;;;;;9.20;6.53;;;;;;;0.87;52.91;99667.72;5042738;28;20040;-79
2022/04/03 05:31:08;;;;;;;11.25;7.72;;;;;;;0.82;52.59;99671.44;5045146;28;20475;-76
2022/04/03 05:33:36;;;;;;;9.07;6.78;;;;;;;0.86;52.77;99676.44;5046092;28;20508;-79
2022/04/03 05:36:04;;;;;;;12.52;7.40;;;;;;;0.85;52.23;99684.31;5046501;28;20133;-78
2022/04/03 05:38:31;;;;;;;10.75;6.15;;;;;;;0.81;51.90;99686.19;5046679;28;20111;-77
2022/04/03 05:40:58;;;;;;;9.35;5.68;;;;;;;0.88;51.98;99690.22;5046349;28;20049;-78
2022/04/03 05:43:25;;;;;;;8.77;6.28;;;;;;;0.89;51.53;99697.09;5045254;28;20053;-77
2022/04/03 05:45:54;;;;;;;8.52;6.38;;;;;;;0.90;50.61;99692.75;5046130;28;20057;-76
2022/04/03 05:48:21;;;;;;;10.48;6.65;;;;;;;0.95;50.88;99698.59;5046843;28;20059;-77
2022/04/03 05:50:50;;;;;;;8.13;6.10;;;;;;;0.98;50.30;99708.88;5046208;28;20507;-77
2022/04/03 05:53:17;;;;;;;12.02;6.93;;;;;;;1.03;50.70;99698.31;5047721;28;20734;-76
2022/04/03 05:55:44;;;;;;;9.98;6.70;;;;;;;1.10;50.40;99700.56;5049901;28;20080;-79
2022/04/03 05:58:12;;;;;;;10.98;6.93;;;;;;;1.16;49.89;99704.66;5059290;28;20058;-78
2022/04/03 06:00:40;;;;;;;10.10;5.90;;;;;;;1.21;49.72;99707.91;5052335;28;20123;-80
2022/04/03 06:03:11;;;;;;;12.55;6.57;;;;;;;1.27;49.53;99706.81;5050249;28;20102;-76
2022/04/03 06:05:39;;;;;;;13.32;8.73;;;;;;;1.29;48.86;99710.19;5066447;28;20150;-77
2022/04/03 06:08:07;;;;;;;12.07;7.38;;;;;;;1.34;48.78;99714.28;5068008;28;20074;-80
2022/04/03 06:10:35;;;;;;;14.32;8.68;;;;;;;1.35;48.47;99715.09;5068883;28;20048;-80
2022/04/03 06:13:04;;;;;;;10.88;6.38;;;;;;;1.36;48.24;99716.81;5051130;28;20075;-79
2022/04/03 06:15:34;;;;;;;12.27;7.00;;;;;;;1.42;48.03;99720.91;5072376;28;20056;-78
2022/04/03 06:18:03;;;;;;;10.43;6.93;;;;;;;1.49;47.30;99719.72;5067414;28;20131;-75
2022/04/03 06:20:33;;;;;;;11.85;6.57;;;;;;;1.51;47.20;99721.38;5068718;28;20048;-79
2022/04/03 06:23:01;;;;;;;10.40;5.88;;;;;;;1.57;46.24;99724.59;5071498;28;20116;-81
2022/04/03 06:25:28;;;;;;;9.38;6.15;;;;;;;1.61;46.45;99726.16;5080096;28;20049;-78
2022/04/03 06:27:56;;;;;;;11.20;7.18;;;;;;;1.68;45.92;99725.81;5067696;28;20049;-81
2022/04/03 06:30:24;;;;;;;10.73;5.95;;;;;;;1.70;45.95;99736.16;5050792;28;20160;-78
2022/04/03 06:32:51;;;;;;;9.60;6.65;;;;;;;1.84;45.75;99727.75;5052548;28;20714;-78
2022/04/03 06:35:19;;;;;;;11.35;6.63;;;;;;;1.88;45.34;99730.13;5051208;28;20079;-77
2022/04/03 06:37:57;;;;;;;9.80;6.22;;;;;;;1.92;44.41;99725.63;5052704;28;20194;-80
2022/04/03 06:40:25;;;;;;;8.77;6.38;;;;;;;1.95;44.64;99727.28;5051376;28;20044;-80
2022/04/03 06:42:53;;;;;;;11.32;7.70;;;;;;;1.98;43.94;99732.31;5063487;28;20506;-80
2022/04/03 06:45:20;;;;;;;7.90;5.93;;;;;;;1.97;43.52;99734.09;5056068;28;20112;-77
2022/04/03 06:47:49;;;;;;;9.00;5.93;;;;;;;1.96;43.71;99732.38;5046126;28;20044;-78
2022/04/03 06:50:16;;;;;;;10.75;7.22;;;;;;;2.04;43.81;99737.25;5049042;28;20148;-79
2022/04/03 06:52:44;;;;;;;8.85;6.32;;;;;;;2.06;43.90;99735.44;5034115;28;20110;-80
2022/04/03 06:55:14;;;;;;;7.53;5.88;;;;;;;2.06;44.02;99741.47;5032272;28;20055;-81
2022/04/03 06:57:41;;;;;;;10.73;7.68;;;;;;;2.07;43.85;99743.19;5054332;28;20503;-78
2022/04/03 07:00:13;;;;;;;8.95;6.13;;;;;;;2.15;43.72;99745.44;5054817;28;20068;-78
2022/04/03 07:02:40;;;;;;;11.43;8.18;;;;;;;2.19;43.44;99746.13;5051491;28;20057;-79
2022/04/03 07:05:10;;;;;;;10.00;6.13;;;;;;;2.26;43.63;99750.97;5048784;28;20108;-76
2022/04/03 07:07:37;;;;;;;17.65;8.50;;;;;;;2.40;43.55;99747.75;5055006;28;20044;-81
2022/04/03 07:10:05;;;;;;;9.73;6.45;;;;;;;2.48;43.29;99753.44;5057424;28;20120;-76
2022/04/03 07:12:34;;;;;;;8.82;5.28;;;;;;;2.49;43.20;99752.53;5056725;28;20128;-73
2022/04/03 07:15:03;;;;;;;9.35;5.50;;;;;;;2.53;42.69;99752.38;5056159;28;20079;-74
2022/04/03 07:17:30;;;;;;;7.35;5.47;;;;;;;2.51;42.55;99754.22;5061608;28;20492;-77
2022/04/03 07:19:57;;;;;;;9.15;6.45;;;;;;;2.49;42.55;99752.53;5041857;28;20411;-76
2022/04/03 07:22:24;;;;;;;10.98;6.93;;;;;;;2.51;42.93;99755.06;5060538;28;20132;-79
2022/04/03 07:24:52;;;;;;;9.60;6.25;;;;;;;2.60;42.26;99754.63;5064492;28;20167;-77
2022/04/03 07:27:19;;;;;;;8.00;5.50;;;;;;;2.71;42.39;99761.94;5048932;28;20103;-76
2022/04/03 07:29:48;;;;;;;7.95;5.15;;;;;;;2.76;42.05;99765.16;5052150;28;20487;-77
2022/04/03 07:32:15;;;;;;;8.07;5.20;;;;;;;2.89;41.16;99759.34;5043793;28;20080;-77
2022/04/03 07:34:42;;;;;;;6.13;4.53;;;;;;;2.92;40.61;99753.97;5055076;28;20097;-77
2022/04/03 07:37:09;;;;;;;8.25;5.22;;;;;;;2.93;40.08;99755.66;5057292;28;20040;-77
2022/04/03 07:39:36;;;;;;;9.93;6.75;;;;;;;3.00;40.23;99760.50;5059388;28;20068;-72
2022/04/03 07:42:04;;;;;;;20.45;13.77;;;;;;;3.10;40.24;99771.34;5052403;28;20045;-74
2022/04/03 07:44:31;;;;;;;9.10;5.60;;;;;;;3.28;39.92;99766.13;5057618;28;20044;-77
2022/04/03 07:47:00;;;;;;;10.15;5.43;;;;;;;3.41;39.78;99764.59;5060967;28;20132;-79
2022/04/03 07:49:27;;;;;;;5.22;3.78;;;;;;;3.47;38.90;99772.09;5056783;28;20095;-72
2022/04/03 07:51:54;;;;;;;5.80;4.18;;;;;;;3.43;39.25;99766.19;5064191;28;20284;-73
2022/04/03 07:54:21;;;;;;;7.40;5.53;;;;;;;3.35;39.54;99770.09;5059841;28;20202;-77
2022/04/03 07:56:48;;;;;;;8.25;4.43;;;;;;;3.44;39.57;99764.44;5063543;28;20169;-77
2022/04/03 07:59:15;;;;;;;8.05;4.25;;;;;;;3.44;39.58;99778.34;5059701;28;20105;-72
2022/04/03 08:01:42;;;;;;;8.00;5.38;;;;;;;3.59;39.91;99771.47;5052885;28;20479;-73
2022/04/03 08:04:13;;;;;;;7.45;4.82;;;;;;;3.43;38.48;99768.81;5056150;28;20099;-77
2022/04/03 08:06:41;;;;;;;6.65;4.95;;;;;;;3.33;38.69;99780.66;5063251;28;20102;-80
2022/04/03 08:09:16;;;;;;;5.63;4.57;;;;;;;3.23;38.54;99769.81;5052566;28;20055;-81
2022/04/03 08:11:44;;;;;;;6.00;4.53;;;;;;;3.32;38.33;99785.94;5071072;28;20045;-81
2022/04/03 08:14:13;;;;;;;5.50;3.75;;;;;;;3.34;38.57;99782.31;5068718;28;20084;-83
2022/04/03 08:16:41;;;;;;;6.60;4.13;;;;;;;3.57;38.38;99782.94;5068523;28;20120;-74
2022/04/03 08:19:09;;;;;;;6.90;5.45;;;;;;;3.74;37.30;99784.69;5070172;28;20055;-77
2022/04/03 08:21:38;;;;;;;12.88;9.05;;;;;;;3.81;37.61;99793.88;5058269;28;20580;-81
2022/04/03 08:24:05;;;;;;;7.53;5.38;;;;;;;3.83;37.11;99792.91;5055016;28;20091;-80
2022/04/03 08:26:33;;;;;;;6.93;4.20;;;;;;;3.86;36.99;99791.88;5062990;28;20120;-80
2022/04/03 08:29:00;;;;;;;11.00;4.93;;;;;;;3.98;36.55;99793.00;5052901;28;20159;-77
2022/04/03 08:31:28;;;;;;;10.57;5.40;;;;;;;4.24;37.05;99793.41;5062389;28;20143;-75
2022/04/03 08:33:55;;;;;;;8.68;5.40;;;;;;;4.24;36.00;99794.22;5053396;28;20122;-77
2022/04/03 08:36:23;;;;;;;8.45;5.55;;;;;;;4.42;36.13;99796.78;5052522;28;20131;-75
2022/04/03 08:38:53;;;;;;;6.50;4.22;;;;;;;4.62;35.87;99791.28;5049115;28;20507;-75
2022/04/03 08:41:21;;;;;;;8.00;5.60;;;;;;;4.72;35.63;99789.03;5051045;28;20041;-76
2022/04/03 08:43:51;;;;;;;7.43;5.80;;;;;;;4.92;36.73;99787.91;5046263;28;20171;-74
2022/04/03 08:46:18;;;;;;;6.15;5.35;;;;;;;4.94;35.43;99796.50;5054008;28;20052;-73
2022/04/03 08:48:47;;;;;;;5.75;4.72;;;;;;;4.89;35.71;99801.16;5052513;28;20134;-77
2022/04/03 08:51:15;;;;;;;6.10;4.25;;;;;;;5.02;35.59;99803.94;5050932;28;20059;-76
2022/04/03 08:53:47;;;;;;;5.30;3.20;;;;;;;5.68;35.64;99794.88;5040436;28;20394;-79
2022/04/03 08:56:15;;;;;;;7.10;4.25;;;;;;;5.81;34.45;99801.03;5046973;28;20048;-74
2022/04/03 08:58:42;;;;;;;9.35;4.18;;;;;;;5.55;33.88;99805.22;5054826;28;20115;-75
2022/04/03 09:01:10;;;;;;;5.18;4.30;;;;;;;5.54;34.22;99798.28;5034837;28;20040;-73
2022/04/03 09:03:37;;;;;;;8.20;4.90;;;;;;;5.62;33.71;99793.44;5058649;28;20048;-74
2022/04/03 09:06:15;;;;;;;5.85;4.05;;;;;;;5.62;33.69;99810.94;5043931;28;20045;-76
2022/04/03 09:08:42;;;;;;;6.00;4.32;;;;;;;5.64;33.76;99798.59;5047556;28;20067;-76
2022/04/03 09:11:09;;;;;;;6.07;4.15;;;;;;;5.60;33.91;99799.69;5048552;28;20048;-74
2022/04/03 09:13:39;;;;;;;6.18;4.68;;;;;;;5.46;33.87;99805.78;5050188;28;20049;-77
2022/04/03 09:16:10;;;;;;;5.63;4.10;;;;;;;5.32;34.17;99803.94;5045736;28;20305;-76
2022/04/03 09:18:47;;;;;;;9.30;5.35;;;;;;;5.39;34.49;99810.50;5051410;28;20128;-77
2022/04/03 09:21:23;;;;;;;7.57;4.10;;;;;;;5.30;33.31;99806.66;5059025;28;20071;-79
2022/04/03 09:24:00;;;;;;;6.35;4.68;;;;;;;5.33;33.46;99813.47;5059630;28;20036;-79
2022/04/03 09:26:28;;;;;;;9.05;4.75;;;;;;;5.50;33.75;99812.50;5049817;28;20159;-77
2022/04/03 09:29:15;;;;;;;5.38;3.55;;;;;;;5.60;33.08;99810.19;5051720;28;20127;-76
2022/04/03 09:31:45;;;;;;;7.00;4.22;;;;;;;5.82;32.52;99807.97;5044458;28;20063;-75
2022/04/03 09:34:16;;;;;;;6.45;3.63;;;;;;;5.98;32.54;99802.69;5039757;28;20045;-76
2022/04/03 09:36:44;;;;;;;7.03;4.72;;;;;;;6.12;32.05;99804.47;5048608;28;20518;-77
2022/04/03 09:39:16;;;;;;;6.45;4.35;;;;;;;5.93;32.25;99804.72;5048129;28;20051;-78
2022/04/03 09:41:56;;;;;;;9.30;5.25;;;;;;;6.16;35.16;99810.34;5040693;28;20106;-77
2022/04/03 09:44:29;;;;;;;9.82;6.55;;;;;;;6.13;35.56;99804.38;5048746;28;20056;-74
2022/04/03 09:47:20;;;;;;;12.88;8.68;;;;;;;6.08;36.42;99811.66;5060389;28;20066;-77
2022/04/03 09:49:53;;;;;;;8.93;5.55;;;;;;;5.98;35.72;99810.56;5062067;28;20483;-80
2022/04/03 09:52:52;;;;;;;10.15;6.53;;;;;;;5.90;35.83;99816.22;5068835;28;20055;-75
2022/04/03 09:55:28;;;;;;;12.05;5.20;;;;;;;5.79;36.00;99817.81;5076861;28;20044;-77
2022/04/03 09:58:03;;;;;;;9.70;6.03;;;;;;;5.74;35.59;99825.94;5072631;28;20052;-83
2022/04/03 10:00:37;;;;;;;8.77;6.22;;;;;;;5.86;35.17;99819.13;5048993;28;20651;-83
2022/04/03 10:03:05;;;;;;;16.10;10.68;;;;;;;5.79;34.77;99817.81;5049063;28;20446;-76
2022/04/03 10:05:35;;;;;;;7.70;5.35;;;;;;;5.82;33.92;99813.22;5049688;28;20076;-73
2022/04/03 10:08:03;;;;;;;10.05;7.00;;;;;;;5.96;34.44;99822.06;5046472;28;20079;-74
2022/04/03 10:10:31;;;;;;;18.73;11.15;;;;;;;6.27;34.56;99829.75;5045441;28;20080;-75
2022/04/03 10:12:59;;;;;;;12.68;5.80;;;;;;;6.40;34.23;99823.75;5056482;28;20076;-78
2022/04/03 10:15:28;;;;;;;9.45;6.40;;;;;;;6.28;33.93;99827.97;5061472;28;20166;-73
2022/04/03 10:17:59;;;;;;;8.98;6.47;;;;;;;6.16;33.28;99816.47;5041493;28;20055;-76
2022/04/03 10:20:29;;;;;;;10.82;5.85;;;;;;;6.22;33.54;99817.88;5040099;28;20698;-77
2022/04/03 10:23:00;;;;;;;10.43;5.32;;;;;;;6.46;33.10;99820.75;5041288;28;20045;-80
2022/04/03 10:25:31;;;;;;;8.10;5.72;;;;;;;6.91;32.12;99826.63;5040953;28;20041;-83
2022/04/03 10:28:05;;;;;;;9.73;4.75;;;;;;;6.75;32.27;99826.78;5047151;28;20083;-78
2022/04/03 10:30:36;;;;;;;16.02;8.13;;;;;;;6.57;33.04;99815.69;5052069;28;20053;-78
2022/04/03 10:33:08;;;;;;;12.05;6.65;;;;;;;6.22;33.28;99825.72;5064577;28;20114;-83
2022/04/03 10:35:36;;;;;;;11.05;6.63;;;;;;;6.16;33.72;99828.72;5061055;28;20607;-78
2022/04/03 10:38:05;;;;;;;20.45;10.60;;;;;;;6.12;33.13;99825.44;5061217;28;20059;-78
2022/04/03 10:40:34;;;;;;;14.93;8.98;;;;;;;6.17;32.60;99822.53;5057987;28;20123;-76
2022/04/03 10:43:05;;;;;;;19.50;11.73;;;;;;;6.18;32.80;99824.25;5059936;28;20068;-78
2022/04/03 10:45:33;;;;;;;16.48;9.85;;;;;;;6.04;32.33;99827.69;5059028;28;20049;-77
2022/04/03 10:48:30;;;;;;;16.17;8.65;;;;;;;5.98;32.92;99830.66;5047044;28;20057;-77
2022/04/03 10:51:13;;;;;;;7.22;4.65;;;;;;;5.82;33.20;99834.19;5044567;28;20803;-76
2022/04/03 10:53:42;;;;;;;9.10;5.15;;;;;;;5.81;33.58;99837.72;5044953;28;20112;-77
2022/04/03 10:56:11;;;;;;;10.52;6.82;;;;;;;5.99;33.85;99835.81;5044803;28;20573;-77
2022/04/03 10:58:41;;;;;;;11.90;6.50;;;;;;;6.03;33.51;99839.09;5046935;28;20044;-74
2022/04/03 11:01:11;;;;;;;8.68;5.55;;;;;;;5.88;33.41;99833.81;5047683;28;20102;-75
2022/04/03 11:03:40;;;;;;;9.60;5.40;;;;;;;6.04;33.08;99827.69;5042240;28;20045;-76
2022/04/03 11:06:34;;;;;;;8.07;5.68;;;;;;;6.41;32.48;99821.03;5044744;28;20156;-74
2022/04/03 11:09:06;;;;;;;8.73;5.53;;;;;;;6.58;31.87;99827.84;5042341;28;20068;-73
2022/04/03 11:11:38;;;;;;;9.10;5.82;;;;;;;6.55;32.70;99824.56;5041469;28;20054;-77
2022/04/03 11:14:09;;;;;;;11.85;6.93;;;;;;;6.25;33.04;99834.25;5042701;28;20116;-79
2022/04/03 11:16:53;;;;;;;10.18;6.32;;;;;;;6.20;34.00;99833.69;5043964;28;20044;-75
2022/04/03 11:19:50;;;;;;;11.25;7.85;;;;;;;6.25;33.91;99838.66;5045416;28;20036;-77
2022/04/03 11:22:18;;;;;;;11.50;6.90;;;;;;;6.19;32.87;99833.78;5047267;28;20052;-75
2022/04/03 11:24:46;;;;;;;12.80;6.97;;;;;;;6.09;33.46;99830.88;5051783;28;20090;-75
2022/04/03 11:27:14;;;;;;;9.98;6.63;;;;;;;6.15;33.30;99827.88;5053834;28;20527;-77
2022/04/03 11:29:46;;;;;;;9.43;5.53;;;;;;;6.32;33.35;99832.94;5041518;28;20041;-76
2022/04/03 11:32:16;;;;;;;9.82;6.65;;;;;;;6.54;33.19;99825.53;5045481;28;20663;-77
2022/04/03 11:34:45;;;;;;;11.20;6.75;;;;;;;6.51;33.33;99826.53;5045387;28;20036;-76
2022/04/03 11:37:13;;;;;;;7.03;5.25;;;;;;;6.50;33.68;99830.13;5042569;28;20051;-75
2022/04/03 11:39:42;;;;;;;7.43;4.97;;;;;;;6.31;33.45;99825.16;5048976;28;20116;-73
2022/04/03 11:42:10;;;;;;;16.58;10.05;;;;;;;6.27;33.91;99832.38;5049120;28;20077;-75
2022/04/03 11:44:37;;;;;;;7.63;5.25;;;;;;;6.15;33.25;99832.28;5046210;28;20435;-78
2022/04/03 11:47:06;;;;;;;8.57;5.05;;;;;;;6.05;33.67;99839.84;5047181;28;20087;-76